createdAt,value
2022-09-14T00:01:32.950Z,8.98
2022-09-14T00:04:06.132Z,9.38
2022-09-14T00:06:33.480Z,9.05
2022-09-14T00:09:01.678Z,9.13
2022-09-14T00:11:32.041Z,9.02
2022-09-14T00:14:01.539Z,8.50
2022-09-14T00:16:34.822Z,9.07
2022-09-14T00:19:06.483Z,8.48
2022-09-14T00:21:38.950Z,8.68
2022-09-14T00:24:07.506Z,8.98
2022-09-14T00:26:35.621Z,8.40
2022-09-14T00:29:05.191Z,8.85
2022-09-14T00:31:36.046Z,9.82
2022-09-14T00:34:05.116Z,9.07
2022-09-14T00:36:34.223Z,8.90
2022-09-14T00:39:01.965Z,9.00
2022-09-14T00:41:34.149Z,8.35
2022-09-14T00:44:06.013Z,8.53
2022-09-14T00:46:48.347Z,8.63
2022-09-14T00:49:18.088Z,8.32
2022-09-14T00:51:49.745Z,8.77
2022-09-14T00:54:17.520Z,9.10
2022-09-14T00:56:46.461Z,9.30
2022-09-14T00:59:18.561Z,8.85
2022-09-14T01:01:46.161Z,8.90
2022-09-14T01:04:13.869Z,8.85
2022-09-14T01:06:48.345Z,9.52
2022-09-14T01:09:40.381Z,9.48
2022-09-14T01:12:14.118Z,10.27
2022-09-14T01:15:02.437Z,10.40
2022-09-14T01:18:08.555Z,10.23
2022-09-14T01:20:40.319Z,11.32
2022-09-14T01:23:46.303Z,11.40
2022-09-14T01:26:18.874Z,12.05
2022-09-14T01:28:49.217Z,12.20
2022-09-14T01:31:39.055Z,12.32
2022-09-14T01:34:13.685Z,12.90
2022-09-14T01:36:43.946Z,13.10
2022-09-14T01:39:12.482Z,13.25
2022-09-14T01:41:40.118Z,13.48
2022-09-14T01:44:12.099Z,13.25
2022-09-14T01:47:01.856Z,14.68
2022-09-14T01:49:33.534Z,14.07
2022-09-14T01:52:23.388Z,13.55
2022-09-14T01:55:28.143Z,14.18
2022-09-14T01:58:05.709Z,14.65
2022-09-14T02:00:33.843Z,14.45
2022-09-14T02:03:07.909Z,13.85
2022-09-14T02:05:41.413Z,15.38
2022-09-14T02:08:09.170Z,14.35
2022-09-14T02:10:36.602Z,14.35
2022-09-14T02:13:03.977Z,15.82
2022-09-14T02:15:31.838Z,16.10
2022-09-14T02:17:59.210Z,15.85
2022-09-14T02:20:37.773Z,16.38
2022-09-14T02:23:06.558Z,16.73
2022-09-14T02:25:37.460Z,17.75
2022-09-14T02:28:04.861Z,18.70
2022-09-14T02:30:42.489Z,20.40
2022-09-14T02:33:16.530Z,20.77
2022-09-14T02:35:59.690Z,21.08
2022-09-14T02:38:40.998Z,19.90
2022-09-14T02:41:22.941Z,20.38
2022-09-14T02:44:16.022Z,21.20
2022-09-14T02:47:03.758Z,21.58
2022-09-14T02:49:37.157Z,23.23
2022-09-14T02:52:18.520Z,23.42
2022-09-14T02:54:54.254Z,24.65
2022-09-14T02:57:22.025Z,25.73
2022-09-14T02:59:49.540Z,28.20
2022-09-14T03:02:16.795Z,26.27
2022-09-14T03:04:44.519Z,30.65
2022-09-14T03:07:11.979Z,30.02
2022-09-14T03:09:39.369Z,32.85
2022-09-14T03:12:06.898Z,33.97
2022-09-14T03:14:34.309Z,35.15
2022-09-14T03:17:01.806Z,35.38
2022-09-14T03:19:29.463Z,34.75
2022-09-14T03:21:56.792Z,36.65
2022-09-14T03:24:24.140Z,37.17
2022-09-14T03:26:52.396Z,35.25
2022-09-14T03:29:19.644Z,34.10
2022-09-14T03:31:46.962Z,34.78
2022-09-14T03:34:14.579Z,34.10
2022-09-14T03:36:41.800Z,34.70
2022-09-14T03:39:09.408Z,33.83
2022-09-14T03:41:37.050Z,34.30
2022-09-14T03:44:04.506Z,35.20
2022-09-14T03:46:31.756Z,33.72
2022-09-14T03:48:59.235Z,32.55
2022-09-14T03:51:26.696Z,32.05
2022-09-14T03:53:54.633Z,32.60
2022-09-14T03:56:23.862Z,31.70
2022-09-14T03:58:51.549Z,32.95
2022-09-14T04:01:20.934Z,32.30
2022-09-14T04:03:49.143Z,33.53
2022-09-14T04:06:17.494Z,31.30
2022-09-14T04:08:46.293Z,31.77
2022-09-14T04:11:22.978Z,31.83
2022-09-14T04:13:51.481Z,32.33
2022-09-14T04:16:21.152Z,30.58
2022-09-14T04:18:49.013Z,30.98
2022-09-14T04:21:19.703Z,32.63
2022-09-14T04:26:35.533Z,32.17
2022-09-14T04:29:03.730Z,30.05
2022-09-14T04:31:31.414Z,32.88
2022-09-14T04:33:59.290Z,33.03
2022-09-14T04:36:29.589Z,34.40
2022-09-14T04:38:59.979Z,34.95
2022-09-14T04:41:28.698Z,36.78
2022-09-14T04:43:56.818Z,34.90
2022-09-14T04:46:27.813Z,36.45
2022-09-14T04:48:55.867Z,34.15
2022-09-14T04:51:25.601Z,34.88
2022-09-14T04:53:54.584Z,35.75
2022-09-14T04:56:24.072Z,35.90
2022-09-14T04:58:54.152Z,35.25
2022-09-14T05:01:24.195Z,36.40
2022-09-14T05:03:53.897Z,37.50
2022-09-14T05:06:23.818Z,36.53
2022-09-14T05:08:52.741Z,32.17
2022-09-14T05:11:22.990Z,31.20
2022-09-14T05:13:51.311Z,34.08
2022-09-14T05:16:23.910Z,32.80
2022-09-14T05:18:54.803Z,29.65
2022-09-14T05:21:23.728Z,28.35
2022-09-14T05:24:02.516Z,24.83
2022-09-14T05:26:31.503Z,23.33
2022-09-14T05:29:00.775Z,23.80
2022-09-14T05:31:29.351Z,23.85
2022-09-14T05:33:57.537Z,23.33
2022-09-14T05:36:25.628Z,23.90
2022-09-14T05:38:53.123Z,24.05
2022-09-14T05:41:21.060Z,25.27
2022-09-14T05:43:48.734Z,25.05
2022-09-14T05:46:20.458Z,24.55
2022-09-14T05:48:51.821Z,26.17
2022-09-14T05:51:23.775Z,24.92
2022-09-14T05:53:56.978Z,27.23
2022-09-14T05:58:53.018Z,27.83
2022-09-14T06:01:22.987Z,28.98
2022-09-14T06:03:51.063Z,29.20
2022-09-14T06:06:20.034Z,30.02
2022-09-14T06:08:52.489Z,29.80
2022-09-14T06:11:25.435Z,30.80
2022-09-14T06:13:54.630Z,31.60
2022-09-14T06:16:23.981Z,28.55
2022-09-14T06:18:51.666Z,30.42
2022-09-14T06:21:20.470Z,30.35
2022-09-14T06:23:49.456Z,32.55
2022-09-14T06:26:17.277Z,32.00
2022-09-14T06:28:44.714Z,33.00
2022-09-14T06:31:14.067Z,32.92
2022-09-14T06:33:45.800Z,33.17
2022-09-14T06:36:16.183Z,31.70
2022-09-14T06:38:44.573Z,32.80
2022-09-14T06:41:15.160Z,30.30
2022-09-14T06:43:43.347Z,31.58
2022-09-14T06:46:25.512Z,29.67
2022-09-14T06:48:59.960Z,29.63
2022-09-14T06:51:36.188Z,29.77
2022-09-14T06:54:05.317Z,28.98
2022-09-14T06:56:35.661Z,29.52
2022-09-14T06:59:03.778Z,28.80
2022-09-14T07:01:31.753Z,30.38
2022-09-14T07:04:00.470Z,28.13
2022-09-14T07:06:31.512Z,29.00
2022-09-14T07:08:59.648Z,27.77
2022-09-14T07:11:27.919Z,27.48
2022-09-14T07:13:58.921Z,26.85
2022-09-14T07:16:27.870Z,25.65
2022-09-14T07:19:00.542Z,26.13
2022-09-14T07:21:29.142Z,24.02
2022-09-14T07:23:56.565Z,22.88
2022-09-14T07:26:29.939Z,22.85
2022-09-14T07:29:00.016Z,22.17
2022-09-14T07:31:31.950Z,19.85
2022-09-14T07:34:02.057Z,19.25
2022-09-14T07:36:34.613Z,19.67
2022-09-14T07:39:08.040Z,19.15
2022-09-14T07:41:36.349Z,17.92
2022-09-14T07:44:06.447Z,16.75
2022-09-14T07:46:39.230Z,17.60
2022-09-14T07:49:07.720Z,14.27
2022-09-14T07:51:36.995Z,14.88
2022-09-14T07:54:06.905Z,12.85
2022-09-14T07:56:35.363Z,14.32
2022-09-14T07:59:30.933Z,13.43
2022-09-14T08:01:51.951Z,12.93
2022-09-14T08:04:19.324Z,12.13
2022-09-14T08:06:46.576Z,11.90
2022-09-14T08:09:14.568Z,11.02
2022-09-14T08:11:42.641Z,10.23
2022-09-14T08:14:11.823Z,10.15
2022-09-14T08:16:40.770Z,9.00
2022-09-14T08:19:13.202Z,9.45
2022-09-14T08:21:46.297Z,9.90
2022-09-14T08:24:19.369Z,9.13
2022-09-14T08:26:48.285Z,9.02
2022-09-14T08:29:17.358Z,8.40
2022-09-14T08:31:45.979Z,8.93
2022-09-14T08:34:15.241Z,7.95
2022-09-14T08:36:43.721Z,7.43
2022-09-14T08:39:12.993Z,6.97
2022-09-14T08:41:43.998Z,7.65
2022-09-14T08:44:22.066Z,7.63
2022-09-14T08:46:54.547Z,7.57
2022-09-14T08:49:43.560Z,8.10
2022-09-14T08:52:22.898Z,7.05
2022-09-14T08:54:54.446Z,7.13
2022-09-14T08:57:39.793Z,7.25
2022-09-14T09:00:13.694Z,7.38
2022-09-14T09:02:56.967Z,6.22
2022-09-14T09:05:43.063Z,6.20
2022-09-14T09:08:49.155Z,6.15
2022-09-14T09:11:20.264Z,6.28
2022-09-14T09:13:49.487Z,5.93
2022-09-14T09:16:20.403Z,6.47
2022-09-14T09:18:57.091Z,5.53
2022-09-14T09:21:29.806Z,5.53
2022-09-14T09:24:16.978Z,5.30
2022-09-14T09:26:44.629Z,4.90
2022-09-14T09:29:12.294Z,5.75
2022-09-14T09:31:59.782Z,5.40
2022-09-14T09:34:53.441Z,4.97
2022-09-14T09:37:31.938Z,4.45
2022-09-14T09:40:00.463Z,4.35
2022-09-14T09:42:28.542Z,3.90
2022-09-14T09:45:03.201Z,3.70
2022-09-14T09:47:37.370Z,4.13
2022-09-14T09:50:26.602Z,3.50
2022-09-14T09:53:02.069Z,4.00
2022-09-14T09:55:38.603Z,3.92
2022-09-14T09:58:32.661Z,3.72
2022-09-14T10:01:19.366Z,3.92
2022-09-14T10:04:03.207Z,3.33
2022-09-14T10:06:31.495Z,3.45
2022-09-14T10:08:59.991Z,3.38
2022-09-14T10:11:38.098Z,3.17
2022-09-14T10:14:06.798Z,2.92
2022-09-14T10:16:39.448Z,3.58
2022-09-14T10:19:14.891Z,3.50
2022-09-14T10:22:24.276Z,3.63
2022-09-14T10:25:00.272Z,3.88
2022-09-14T10:27:53.043Z,4.35
2022-09-14T10:30:23.825Z,3.85
2022-09-14T10:33:02.661Z,4.78
2022-09-14T10:36:07.420Z,4.20
2022-09-14T10:38:58.717Z,4.13
2022-09-14T10:41:39.228Z,4.03
2022-09-14T10:44:37.834Z,4.63
2022-09-14T10:47:43.355Z,4.20
2022-09-14T10:50:32.685Z,4.30
2022-09-14T10:53:31.766Z,4.68
2022-09-14T10:56:01.272Z,4.03
2022-09-14T10:58:44.603Z,3.88
2022-09-14T11:01:21.012Z,4.57
2022-09-14T11:04:26.579Z,4.85
2022-09-14T11:06:56.905Z,4.28
2022-09-14T11:09:45.794Z,3.70
2022-09-14T11:12:21.831Z,3.70
2022-09-14T11:15:31.692Z,3.97
2022-09-14T11:18:17.968Z,3.10
2022-09-14T11:20:58.725Z,3.10
2022-09-14T11:23:32.198Z,3.17
2022-09-14T11:26:15.582Z,2.30
2022-09-14T11:28:48.552Z,2.90
2022-09-14T11:31:37.856Z,2.35
2022-09-14T11:34:28.599Z,2.70
2022-09-14T11:37:00.285Z,3.03
2022-09-14T11:39:38.247Z,2.85
2022-09-14T11:42:18.989Z,2.55
2022-09-14T11:44:59.802Z,2.55
2022-09-14T11:47:28.644Z,2.58
2022-09-14T11:50:03.625Z,2.55
2022-09-14T11:52:33.301Z,2.47
2022-09-14T11:55:02.282Z,2.28
2022-09-14T11:57:33.630Z,2.08
2022-09-14T12:00:06.861Z,3.00
2022-09-14T12:02:37.995Z,2.28
2022-09-14T12:05:08.390Z,2.45
2022-09-14T12:07:48.050Z,1.90
2022-09-14T12:10:15.719Z,1.92
2022-09-14T12:13:03.983Z,2.10
2022-09-14T12:15:38.439Z,1.77
2022-09-14T12:18:11.903Z,1.95
2022-09-14T12:20:49.241Z,2.40
2022-09-14T12:23:28.066Z,2.03
2022-09-14T12:26:18.073Z,2.30
2022-09-14T12:28:48.828Z,2.25
2022-09-14T12:31:39.606Z,2.00
2022-09-14T12:34:32.140Z,1.95
2022-09-14T12:37:21.596Z,2.00
2022-09-14T12:40:26.935Z,2.30
2022-09-14T12:42:54.966Z,2.33
2022-09-14T12:45:48.063Z,1.90
2022-09-14T12:48:52.581Z,2.28
2022-09-14T12:51:31.969Z,2.20
2022-09-14T12:54:21.642Z,2.13
2022-09-14T12:57:23.790Z,2.15
2022-09-14T13:00:13.686Z,2.10
2022-09-14T13:03:19.648Z,1.63
2022-09-14T13:05:47.418Z,2.20
2022-09-14T13:08:21.424Z,2.00
2022-09-14T13:10:51.310Z,2.30
2022-09-14T13:13:24.221Z,2.35
2022-09-14T13:15:57.514Z,2.13
2022-09-14T13:18:30.759Z,1.95
2022-09-14T13:21:19.580Z,2.00
2022-09-14T13:23:47.445Z,2.30
2022-09-14T13:26:20.439Z,2.30
2022-09-14T13:28:49.552Z,1.88
2022-09-14T13:31:28.740Z,2.10
2022-09-14T13:33:56.588Z,2.03
2022-09-14T13:36:29.933Z,1.90
2022-09-14T13:41:26.288Z,2.10
2022-09-14T13:43:55.496Z,2.10
2022-09-14T13:46:24.762Z,2.00
2022-09-14T13:48:52.768Z,2.13
2022-09-14T13:51:25.943Z,2.00
2022-09-14T13:53:56.487Z,2.28
2022-09-14T13:56:33.335Z,2.20
2022-09-14T13:59:11.379Z,1.98
2022-09-14T14:01:40.762Z,2.45
2022-09-14T14:04:27.701Z,2.47
2022-09-14T14:07:31.109Z,2.05
2022-09-14T14:12:30.009Z,1.92
2022-09-14T14:15:03.003Z,2.60
2022-09-14T14:17:30.565Z,2.00
2022-09-14T14:20:01.447Z,2.28
2022-09-14T14:22:32.799Z,2.38
2022-09-14T14:25:16.255Z,2.40
2022-09-14T14:30:20.295Z,2.17
2022-09-14T14:32:55.097Z,1.80
2022-09-14T14:35:26.579Z,1.98
2022-09-14T14:37:55.022Z,2.35
2022-09-14T14:40:23.507Z,2.40
2022-09-14T14:42:51.809Z,1.77
2022-09-14T14:45:22.176Z,2.08
2022-09-14T14:47:53.236Z,2.20
2022-09-14T14:50:23.673Z,2.13
2022-09-14T14:52:51.946Z,2.15
2022-09-14T14:55:21.283Z,2.33
2022-09-14T14:57:49.826Z,1.90
2022-09-14T15:00:23.669Z,2.00
2022-09-14T15:02:51.817Z,2.13
2022-09-14T15:05:19.822Z,1.73
2022-09-14T15:07:50.151Z,2.22
2022-09-14T15:10:18.418Z,2.00
2022-09-14T15:12:46.599Z,1.80
2022-09-14T15:15:19.596Z,1.90
2022-09-14T15:17:47.497Z,1.98
2022-09-14T15:20:15.554Z,1.90
2022-09-14T15:22:42.969Z,2.35
2022-09-14T15:25:12.418Z,2.45
2022-09-14T15:27:41.012Z,2.13
2022-09-14T15:30:09.519Z,1.58
2022-09-14T15:32:37.135Z,1.95
2022-09-14T15:35:10.624Z,1.80
2022-09-14T15:37:38.278Z,2.08
2022-09-14T15:40:06.348Z,1.88
2022-09-14T15:42:33.857Z,2.13
2022-09-14T15:45:01.683Z,2.53
2022-09-14T15:47:32.824Z,2.45
2022-09-14T15:50:03.387Z,1.85
2022-09-14T15:52:31.184Z,1.95
2022-09-14T15:54:58.595Z,1.80
2022-09-14T15:57:26.305Z,2.13
2022-09-14T15:59:54.946Z,1.95
2022-09-14T16:02:22.312Z,2.13
2022-09-14T16:04:50.124Z,2.00
2022-09-14T16:07:17.531Z,2.38
2022-09-14T16:09:45.947Z,1.88
2022-09-14T16:12:13.961Z,2.20
2022-09-14T16:14:41.412Z,2.15
2022-09-14T16:17:11.357Z,2.53
2022-09-14T16:19:38.912Z,2.22
2022-09-14T16:22:06.476Z,2.17
2022-09-14T16:24:34.166Z,2.63
2022-09-14T16:27:02.116Z,2.60
2022-09-14T16:29:29.426Z,2.72
2022-09-14T16:31:57.248Z,2.30
2022-09-14T16:34:29.481Z,2.65
2022-09-14T16:36:58.898Z,2.90
2022-09-14T16:39:29.854Z,2.85
2022-09-14T16:41:57.557Z,2.67
2022-09-14T16:44:26.597Z,2.53
2022-09-14T16:46:57.770Z,2.30
2022-09-14T16:49:27.973Z,3.45
2022-09-14T16:52:00.827Z,3.67
2022-09-14T16:54:30.104Z,2.47
2022-09-14T16:56:59.458Z,2.75
2022-09-14T16:59:27.315Z,3.25
2022-09-14T17:01:55.648Z,3.75
2022-09-14T17:04:24.712Z,3.40
2022-09-14T17:06:53.359Z,4.13
2022-09-14T17:09:32.664Z,3.70
2022-09-14T17:12:00.629Z,3.78
2022-09-14T17:14:33.327Z,4.00
2022-09-14T17:17:01.275Z,3.78
2022-09-14T17:19:29.079Z,3.80
2022-09-14T17:21:57.418Z,4.38
2022-09-14T17:24:26.134Z,4.07
2022-09-14T17:26:53.398Z,4.40
2022-09-14T17:29:21.227Z,4.22
2022-09-14T17:31:48.932Z,5.05
2022-09-14T17:34:17.200Z,4.15
2022-09-14T17:36:45.667Z,4.90
2022-09-14T17:39:14.430Z,5.40
2022-09-14T17:41:42.972Z,5.10
2022-09-14T17:44:12.817Z,5.95
2022-09-14T17:46:49.641Z,5.13
2022-09-14T17:49:22.011Z,6.00
2022-09-14T17:51:50.948Z,6.28
2022-09-14T17:54:19.301Z,6.32
2022-09-14T17:56:47.429Z,6.60
2022-09-14T17:59:20.316Z,5.82
2022-09-14T18:01:49.123Z,5.78
2022-09-14T18:04:17.885Z,5.50
2022-09-14T18:06:47.832Z,5.20
2022-09-14T18:09:18.773Z,5.97
2022-09-14T18:11:47.017Z,5.75
2022-09-14T18:14:15.137Z,6.07
2022-09-14T18:16:43.189Z,5.75
2022-09-14T18:19:11.889Z,5.25
2022-09-14T18:21:39.322Z,5.43
2022-09-14T18:24:07.032Z,5.55
2022-09-14T18:26:34.697Z,5.40
2022-09-14T18:29:03.795Z,5.03
2022-09-14T18:31:31.337Z,5.90
2022-09-14T18:34:00.939Z,5.57
2022-09-14T18:36:29.950Z,5.40
2022-09-14T18:38:58.600Z,6.07
2022-09-14T18:41:29.744Z,5.63
2022-09-14T18:43:58.498Z,6.72
2022-09-14T18:46:28.359Z,5.50
2022-09-14T18:48:59.414Z,5.65
2022-09-14T18:51:28.481Z,5.35
2022-09-14T18:54:05.139Z,5.93
2022-09-14T18:56:34.637Z,5.07
2022-09-14T18:59:03.573Z,6.45
2022-09-14T19:01:31.587Z,6.45
2022-09-14T19:03:59.404Z,6.93
2022-09-14T19:06:26.831Z,7.38
2022-09-14T19:08:54.798Z,9.05
2022-09-14T19:11:27.122Z,8.23
2022-09-14T19:13:59.950Z,8.07
2022-09-14T19:18:56.077Z,7.80
2022-09-14T19:21:26.305Z,8.18
2022-09-14T19:24:14.785Z,9.35
2022-09-14T19:26:47.565Z,8.13
2022-09-14T19:29:17.849Z,8.25
2022-09-14T19:31:48.579Z,9.73
2022-09-14T19:34:16.514Z,8.43
2022-09-14T19:36:44.532Z,8.20
2022-09-14T19:39:11.989Z,8.23
2022-09-14T19:41:40.178Z,8.32
2022-09-14T19:44:09.091Z,7.93
2022-09-14T19:46:39.774Z,8.38
2022-09-14T19:49:26.358Z,8.40
2022-09-14T19:51:54.152Z,7.95
2022-09-14T19:54:23.016Z,7.45
2022-09-14T19:56:50.586Z,8.20
2022-09-14T19:59:18.293Z,8.30
2022-09-14T20:01:46.373Z,11.40
2022-09-14T20:04:15.922Z,10.02
2022-09-14T20:06:44.934Z,9.00
2022-09-14T20:09:23.873Z,8.73
2022-09-14T20:11:53.098Z,8.73
2022-09-14T20:14:24.175Z,8.02
2022-09-14T20:16:56.847Z,8.88
2022-09-14T20:19:27.417Z,8.27
2022-09-14T20:21:55.344Z,8.60
2022-09-14T20:24:25.945Z,8.10
2022-09-14T20:26:56.076Z,7.88
2022-09-14T20:29:24.743Z,8.50
2022-09-14T20:31:52.586Z,7.85
2022-09-14T20:34:21.279Z,7.22
2022-09-14T20:36:49.941Z,7.68
2022-09-14T20:39:18.771Z,7.82
2022-09-14T20:41:46.538Z,7.65
2022-09-14T20:44:14.441Z,7.85
2022-09-14T20:46:44.120Z,7.22
2022-09-14T20:49:14.360Z,7.20
2022-09-14T20:51:42.875Z,7.80
2022-09-14T20:54:12.792Z,7.80
2022-09-14T20:56:41.024Z,7.38
2022-09-14T20:59:11.823Z,7.18
2022-09-14T21:01:41.751Z,8.32
2022-09-14T21:04:12.265Z,8.23
2022-09-14T21:06:45.615Z,7.63
2022-09-14T21:09:14.415Z,8.85
2022-09-14T21:11:42.869Z,8.40
2022-09-14T21:14:10.348Z,7.78
2022-09-14T21:16:43.160Z,7.22
2022-09-14T21:19:16.444Z,8.38
2022-09-14T21:21:44.638Z,8.13
2022-09-14T21:24:13.642Z,7.20
2022-09-14T21:26:43.113Z,7.88
2022-09-14T21:29:14.345Z,7.47
2022-09-14T21:31:42.178Z,7.13
2022-09-14T21:34:10.917Z,7.65
2022-09-14T21:36:41.479Z,7.22
2022-09-14T21:39:23.309Z,7.43
2022-09-14T21:41:58.053Z,7.88
2022-09-14T21:44:33.849Z,7.18
2022-09-14T21:47:02.441Z,7.90
2022-09-14T21:49:30.198Z,8.05
2022-09-14T21:51:57.554Z,7.90
2022-09-14T21:54:25.349Z,7.60
2022-09-14T21:56:53.033Z,7.63
2022-09-14T21:59:21.933Z,8.50
2022-09-14T22:01:49.842Z,7.47
2022-09-14T22:04:19.893Z,8.00
2022-09-14T22:06:48.043Z,8.15
2022-09-14T22:09:17.176Z,8.38
2022-09-14T22:11:45.119Z,8.50
2022-09-14T22:14:15.978Z,7.80
2022-09-14T22:16:43.803Z,7.65
2022-09-14T22:19:16.585Z,7.88
2022-09-14T22:21:44.260Z,7.75
2022-09-14T22:24:14.956Z,8.15
2022-09-14T22:26:42.957Z,8.10
2022-09-14T22:29:10.725Z,8.95
2022-09-14T22:31:40.131Z,8.98
2022-09-14T22:34:08.523Z,8.35
2022-09-14T22:36:37.089Z,8.40
2022-09-14T22:39:05.159Z,8.65
2022-09-14T22:41:32.612Z,8.45
2022-09-14T22:44:00.749Z,8.27
2022-09-14T22:46:28.666Z,8.63
2022-09-14T22:48:56.201Z,8.25
2022-09-14T22:51:25.759Z,8.25
2022-09-14T22:53:53.538Z,8.48
2022-09-14T22:56:22.841Z,9.15
2022-09-14T22:58:50.642Z,8.68
2022-09-14T23:01:25.740Z,9.15
2022-09-14T23:04:07.501Z,9.07
2022-09-14T23:06:43.855Z,9.77
2022-09-14T23:09:17.530Z,8.82
2022-09-14T23:11:45.575Z,9.18
2022-09-14T23:14:14.221Z,7.97
2022-09-14T23:16:42.377Z,8.90
2022-09-14T23:19:14.695Z,8.52
2022-09-14T23:21:42.191Z,8.57
2022-09-14T23:24:11.112Z,8.55
2022-09-14T23:26:39.123Z,8.43
2022-09-14T23:29:09.273Z,9.13
2022-09-14T23:31:36.782Z,7.90
2022-09-14T23:34:05.214Z,7.90
2022-09-14T23:36:33.114Z,7.93
2022-09-14T23:39:00.455Z,7.93
2022-09-14T23:41:28.984Z,8.40
2022-09-14T23:43:56.244Z,7.70
2022-09-14T23:46:24.436Z,8.15
2022-09-14T23:48:52.098Z,7.65
2022-09-14T23:51:19.747Z,8.77
2022-09-14T23:53:47.469Z,8.30
2022-09-14T23:56:15.324Z,7.50
2022-09-14T23:58:43.535Z,8.75
